Startpagina
METAR-TAF:

METAR-TAF

Vliegvelden :

Vereeniging, Zuid-Afrika

breedte: 26-34-29S, lengte: 027-57-45E, hoogte: 1483 m

Actueel weer

Dit bericht is 33 minuten geleden gemaakt, om 14:00 UTC
Wind 2 kt uit het oosten
Temperatuur 21°C
Vochtigheid 11%
Druk 1026 hPa

METAR: FAVV 161400Z AUTO 09002KT //// // ////// 21/M11 Q1026

Tijdstip: 16:33 (14:33 UTC)


TAF: ontbreekt

Waarnemingen en weersverwachtingen van meer dan 4000 vliegvelden (METAR en TAF).

De beschikbare stations zijn de gele en rode punten op de kaart.

Ga met uw muis naar het station om de naam te zien.

Klik dan om waarnemingen en weersverwachtingen te zien.

kaart wijzigen: klik op de groene knoppen met een zwart kruis om in te zoomen, op de groene knop met een streepje om uit te zoomen of op de groene pijlen voor aangrenzende kaarten.


METAR-TAF: